Terminal Aerodrome Forecast
Issued by NWS

Home | Current Version | Previous Version | Text Only | Print | Product List | Glossary On
Versions: 1 2 3 4 5 6 7 8 9 10 11 12
000
FTUS45 KREV 210538
TAFCXP
TAF
KCXP 210538Z 2106/2206 21014G28KT 6SM -RA FEW015 OVC030
      WS015/24050KT
     FM211000 23018G32KT P6SM VCSH SCT025 BKN040 WS020/25045KT
     FM211700 23011G18KT 4SM -SNRA BR SCT015 OVC025
     FM220100 25006KT 6SM -SHSNRA SCT020 OVC035=

USA.gov is the U.S. government's official web portal to all federal, state and local government web resources and services.